Time;durP1;ratioP1;P1;durP2;ratioP2;P2;SDS_P1;SDS_P2;PMS_P1;PMS_P2;Temp;Humidity;BMP_temperature;BMP_pressure;BME280_temperature;BME280_humidity;BME280_pressure;Samples;Min_cycle;Max_cycle;Signal;HPM_P1;HPM_P2
2020/12/07 00:00:42;;;;;;;2.75;1.65;;;;;;;;;;5070928;28;20120;-67
2020/12/07 00:03:09;;;;;;;3.55;1.38;;;;;;;;;;5077983;28;20052;-67
2020/12/07 00:05:36;;;;;;;3.60;1.35;;;;;;;;;;5073391;28;20047;-67
2020/12/07 00:08:03;;;;;;;3.83;1.20;;;;;;;;;;5076379;28;20386;-67
2020/12/07 00:10:29;;;;;;;2.10;1.50;;;;;;;;;;5075304;28;20051;-68
2020/12/07 00:12:57;;;;;;;4.05;1.33;;;;;;;;;;5079064;28;20052;-67
2020/12/07 00:15:23;;;;;;;5.18;1.27;;;;;;;;;;5072031;28;20044;-67
2020/12/07 00:17:51;;;;;;;2.78;1.27;;;;;;;;;;5077035;28;20055;-68
2020/12/07 00:20:17;;;;;;;2.28;1.15;;;;;;;;;;5075602;28;20044;-67
2020/12/07 00:22:45;;;;;;;4.07;1.33;;;;;;;;;;5075554;28;20048;-67
2020/12/07 00:25:14;;;;;;;2.50;1.25;;;;;;;;;;5068807;28;20533;-68
2020/12/07 00:27:40;;;;;;;3.03;1.42;;;;;;;;;;5074216;28;20059;-68
2020/12/07 00:30:06;;;;;;;3.58;1.20;;;;;;;;;;5074134;28;20464;-68
2020/12/07 00:32:33;;;;;;;1.88;0.82;;;;;;;;;;5069981;28;20144;-67
2020/12/07 00:35:00;;;;;;;1.90;0.98;;;;;;;;;;5077376;28;20036;-68
2020/12/07 00:37:27;;;;;;;1.90;1.13;;;;;;;;;;5086281;28;20413;-69
2020/12/07 00:39:53;;;;;;;2.85;1.25;;;;;;;;;;5078110;28;20056;-68
2020/12/07 00:42:19;;;;;;;3.15;1.25;;;;;;;;;;5080703;28;20051;-68
2020/12/07 00:44:46;;;;;;;2.67;1.15;;;;;;;;;;5082744;28;20055;-68
2020/12/07 00:47:12;;;;;;;1.88;1.10;;;;;;;;;;5075061;28;20044;-68
2020/12/07 00:49:38;;;;;;;2.92;1.20;;;;;;;;;;5080120;28;20415;-68
2020/12/07 00:52:05;;;;;;;4.45;1.10;;;;;;;;;;5073788;28;20051;-67
2020/12/07 00:54:31;;;;;;;2.63;1.30;;;;;;;;;;5078576;28;20406;-68
2020/12/07 00:57:00;;;;;;;2.03;1.17;;;;;;;;;;5086634;28;20115;-68
2020/12/07 00:59:31;;;;;;;2.30;1.30;;;;;;;;;;5079328;28;20417;-75
2020/12/07 01:01:59;;;;;;;7.85;1.60;;;;;;;;;;5079625;28;20067;-70
2020/12/07 01:04:25;;;;;;;3.85;1.08;;;;;;;;;;5082513;28;20066;-70
2020/12/07 01:06:52;;;;;;;1.88;1.00;;;;;;;;;;5079213;28;20048;-70
2020/12/07 01:09:19;;;;;;;2.28;0.90;;;;;;;;;;5077260;28;20127;-70
2020/12/07 01:11:46;;;;;;;1.23;0.60;;;;;;;;;;5084440;28;20405;-69
2020/12/07 01:14:12;;;;;;;0.80;0.60;;;;;;;;;;5080621;28;20054;-70
2020/12/07 01:16:39;;;;;;;2.45;0.95;;;;;;;;;;5078622;28;20041;-69
2020/12/07 01:19:05;;;;;;;2.17;0.85;;;;;;;;;;5078218;28;20134;-69
2020/12/07 01:21:32;;;;;;;3.17;1.02;;;;;;;;;;5076068;28;20054;-71
2020/12/07 01:23:59;;;;;;;2.58;1.00;;;;;;;;;;5078557;28;20082;-72
2020/12/07 01:26:25;;;;;;;1.20;0.70;;;;;;;;;;5078563;28;20091;-71
2020/12/07 01:28:51;;;;;;;3.25;1.10;;;;;;;;;;5077900;28;20047;-71
2020/12/07 01:31:17;;;;;;;2.42;0.93;;;;;;;;;;5074887;28;20048;-69
2020/12/07 01:33:44;;;;;;;1.25;0.90;;;;;;;;;;5078812;28;20047;-68
2020/12/07 01:36:11;;;;;;;1.88;0.90;;;;;;;;;;5085651;28;20044;-68
2020/12/07 01:38:37;;;;;;;1.23;0.98;;;;;;;;;;5077807;28;20052;-69
2020/12/07 01:41:03;;;;;;;2.15;0.93;;;;;;;;;;5080674;28;20402;-69
2020/12/07 01:43:29;;;;;;;2.40;0.70;;;;;;;;;;5080599;28;20059;-70
2020/12/07 01:45:56;;;;;;;1.27;0.80;;;;;;;;;;5081103;28;20422;-68
2020/12/07 01:48:25;;;;;;;4.10;0.98;;;;;;;;;;5084205;28;20048;-67
2020/12/07 01:50:51;;;;;;;1.40;0.75;;;;;;;;;;5081755;28;20095;-69
2020/12/07 01:53:21;;;;;;;1.63;0.68;;;;;;;;;;5083011;28;20421;-69
2020/12/07 01:55:47;;;;;;;2.08;1.10;;;;;;;;;;5081036;28;20048;-69
2020/12/07 01:58:14;;;;;;;0.80;0.50;;;;;;;;;;5081484;28;20080;-70
2020/12/07 02:00:41;;;;;;;1.88;0.93;;;;;;;;;;5084417;28;20040;-70
2020/12/07 02:03:10;;;;;;;1.23;0.80;;;;;;;;;;5083943;28;20055;-69
2020/12/07 02:05:39;;;;;;;2.67;0.90;;;;;;;;;;5078950;28;20040;-69
2020/12/07 02:08:09;;;;;;;1.90;0.80;;;;;;;;;;5078571;28;20494;-68
2020/12/07 02:10:35;;;;;;;1.15;0.60;;;;;;;;;;5082186;28;20058;-69
2020/12/07 02:13:02;;;;;;;1.73;0.77;;;;;;;;;;5079462;28;20418;-68
2020/12/07 02:15:28;;;;;;;2.47;0.80;;;;;;;;;;5084876;28;20065;-69
2020/12/07 02:17:54;;;;;;;1.80;1.00;;;;;;;;;;5078454;28;20054;-72
2020/12/07 02:20:21;;;;;;;1.25;0.60;;;;;;;;;;5078103;28;20113;-69
2020/12/07 02:22:47;;;;;;;1.48;1.08;;;;;;;;;;5077746;28;20079;-68
2020/12/07 02:25:13;;;;;;;1.63;0.75;;;;;;;;;;5085250;28;20040;-70
2020/12/07 02:27:39;;;;;;;1.63;0.63;;;;;;;;;;5091453;28;20040;-70
2020/12/07 02:30:06;;;;;;;1.98;0.85;;;;;;;;;;5077128;28;20087;-67
2020/12/07 02:32:32;;;;;;;1.63;0.90;;;;;;;;;;5077944;28;20138;-68
2020/12/07 02:34:58;;;;;;;1.75;0.80;;;;;;;;;;5081342;28;20090;-69
2020/12/07 02:37:27;;;;;;;1.77;0.65;;;;;;;;;;5082356;28;20139;-68
2020/12/07 02:39:53;;;;;;;0.95;0.55;;;;;;;;;;5071791;28;20501;-69
2020/12/07 02:42:19;;;;;;;1.30;0.60;;;;;;;;;;5078506;28;20518;-68
2020/12/07 02:44:45;;;;;;;1.35;0.70;;;;;;;;;;5077611;28;20054;-69
2020/12/07 02:47:11;;;;;;;6.45;1.10;;;;;;;;;;5076635;28;20139;-69
2020/12/07 02:49:37;;;;;;;1.00;0.55;;;;;;;;;;5078896;28;20055;-69
2020/12/07 02:52:04;;;;;;;10.65;0.98;;;;;;;;;;5086687;28;20044;-70
2020/12/07 02:54:30;;;;;;;2.10;1.00;;;;;;;;;;5088095;28;20058;-69
2020/12/07 02:56:57;;;;;;;1.88;0.60;;;;;;;;;;5072352;28;20048;-69
2020/12/07 02:59:23;;;;;;;1.05;0.52;;;;;;;;;;5082734;28;20041;-69
2020/12/07 03:01:50;;;;;;;1.75;0.90;;;;;;;;;;5079269;28;20046;-70
2020/12/07 03:04:16;;;;;;;1.45;0.68;;;;;;;;;;5088331;28;20076;-69
2020/12/07 03:06:42;;;;;;;1.98;0.75;;;;;;;;;;5090561;28;20070;-71
2020/12/07 03:09:08;;;;;;;5.15;1.80;;;;;;;;;;5082794;28;20080;-69
2020/12/07 03:11:34;;;;;;;1.17;0.50;;;;;;;;;;5080630;28;20048;-69
2020/12/07 03:14:01;;;;;;;3.72;0.80;;;;;;;;;;5079041;28;20077;-68
2020/12/07 03:16:27;;;;;;;3.15;0.98;;;;;;;;;;5083902;28;20056;-69
2020/12/07 03:18:54;;;;;;;0.63;0.60;;;;;;;;;;5090230;28;20060;-67
2020/12/07 03:21:20;;;;;;;1.40;0.45;;;;;;;;;;5079084;28;20472;-71
2020/12/07 03:23:46;;;;;;;3.05;0.75;;;;;;;;;;5075541;28;20509;-69
2020/12/07 03:26:12;;;;;;;1.38;0.60;;;;;;;;;;5081576;28;20048;-69
2020/12/07 03:28:38;;;;;;;1.80;0.70;;;;;;;;;;5073580;28;20048;-70
2020/12/07 03:31:30;;;;;;;1.77;0.70;;;;;;;;;;5082152;22;20051;-74
2020/12/07 03:33:59;;;;;;;1.40;0.65;;;;;;;;;;5039373;28;20191;-74
2020/12/07 03:36:25;;;;;;;1.02;0.52;;;;;;;;;;5037967;28;20365;-75
2020/12/07 03:38:55;;;;;;;1.23;0.65;;;;;;;;;;5049347;28;20399;-73
2020/12/07 03:41:21;;;;;;;1.08;0.60;;;;;;;;;;5036674;28;20041;-72
2020/12/07 03:43:47;;;;;;;1.67;0.95;;;;;;;;;;5039859;28;20049;-72
2020/12/07 03:46:14;;;;;;;1.42;0.77;;;;;;;;;;5038352;28;20045;-73
2020/12/07 03:48:40;;;;;;;1.92;0.50;;;;;;;;;;5032586;28;20400;-74
2020/12/07 03:51:06;;;;;;;1.33;0.80;;;;;;;;;;5037894;28;20083;-73
2020/12/07 03:53:38;;;;;;;0.95;0.50;;;;;;;;;;5035814;28;20059;-73
2020/12/07 03:56:04;;;;;;;1.80;0.80;;;;;;;;;;5032990;28;20059;-72
2020/12/07 03:58:31;;;;;;;2.00;0.70;;;;;;;;;;5040624;28;20046;-71
2020/12/07 04:00:57;;;;;;;1.38;0.45;;;;;;;;;;5040266;28;20049;-72
2020/12/07 04:03:23;;;;;;;3.70;1.00;;;;;;;;;;5033295;28;20141;-72
2020/12/07 04:06:18;;;;;;;2.17;0.80;;;;;;;;;;5031470;28;20053;-71
2020/12/07 04:08:36;;;;;;;4.47;0.90;;;;;;;;;;5034871;28;20044;-71
2020/12/07 04:11:03;;;;;;;2.13;0.80;;;;;;;;;;5046374;28;20051;-72
2020/12/07 04:13:29;;;;;;;1.05;0.57;;;;;;;;;;5043563;28;20409;-72
2020/12/07 04:15:56;;;;;;;0.82;0.63;;;;;;;;;;5038906;28;20057;-73
2020/12/07 04:18:26;;;;;;;1.75;0.45;;;;;;;;;;5045413;28;20482;-72
2020/12/07 04:20:53;;;;;;;2.28;0.80;;;;;;;;;;5038028;28;20053;-73
2020/12/07 04:23:20;;;;;;;1.63;0.95;;;;;;;;;;5039426;28;20049;-74
2020/12/07 04:25:46;;;;;;;1.20;1.00;;;;;;;;;;5037010;28;20041;-74
2020/12/07 04:28:12;;;;;;;1.10;0.55;;;;;;;;;;5041154;28;20519;-73
2020/12/07 04:30:39;;;;;;;2.05;1.20;;;;;;;;;;5040183;28;20037;-74
2020/12/07 04:33:06;;;;;;;0.45;0.35;;;;;;;;;;5041017;28;20060;-75
2020/12/07 04:35:32;;;;;;;1.58;0.80;;;;;;;;;;5042120;28;20413;-76
2020/12/07 04:37:58;;;;;;;1.23;0.65;;;;;;;;;;5041577;28;20053;-75
2020/12/07 04:40:25;;;;;;;0.95;0.50;;;;;;;;;;5034144;28;20047;-73
2020/12/07 04:42:54;;;;;;;0.88;0.60;;;;;;;;;;5039216;28;20076;-74
2020/12/07 04:45:26;;;;;;;2.45;1.10;;;;;;;;;;5043871;28;20057;-75
2020/12/07 04:47:53;;;;;;;0.60;0.43;;;;;;;;;;5034786;28;20041;-74
2020/12/07 04:50:21;;;;;;;1.65;0.60;;;;;;;;;;5042341;28;20491;-76
2020/12/07 04:52:50;;;;;;;0.88;0.40;;;;;;;;;;5045925;28;20061;-75
2020/12/07 04:55:16;;;;;;;1.45;0.80;;;;;;;;;;5037682;28;20059;-75
2020/12/07 04:57:43;;;;;;;0.95;0.60;;;;;;;;;;5040613;28;20132;-74
2020/12/07 05:00:09;;;;;;;1.45;0.60;;;;;;;;;;5037210;28;20415;-73
2020/12/07 05:02:35;;;;;;;3.35;0.50;;;;;;;;;;5042131;28;20041;-74
2020/12/07 05:05:05;;;;;;;0.95;0.70;;;;;;;;;;5037677;28;20388;-74
2020/12/07 05:07:32;;;;;;;1.80;0.60;;;;;;;;;;5037713;28;20055;-74
2020/12/07 05:09:58;;;;;;;0.43;0.30;;;;;;;;;;5042444;28;20045;-73
2020/12/07 05:12:29;;;;;;;1.73;0.70;;;;;;;;;;5037264;28;20511;-74
2020/12/07 05:14:56;;;;;;;1.42;0.50;;;;;;;;;;5042019;28;20055;-74
2020/12/07 05:17:22;;;;;;;1.52;0.50;;;;;;;;;;5039638;28;20108;-74
2020/12/07 05:19:49;;;;;;;2.85;0.75;;;;;;;;;;5038473;28;20052;-73
2020/12/07 05:22:16;;;;;;;1.20;0.70;;;;;;;;;;5040365;28;20505;-73
2020/12/07 05:24:46;;;;;;;0.57;0.52;;;;;;;;;;5045244;28;20049;-74
2020/12/07 05:27:15;;;;;;;1.25;0.63;;;;;;;;;;5041767;28;20055;-75
2020/12/07 05:30:26;;;;;;;2.47;1.08;;;;;;;;;;5037897;28;20049;-75
2020/12/07 05:32:32;;;;;;;1.00;0.70;;;;;;;;;;5038774;28;20049;-75
2020/12/07 05:35:00;;;;;;;0.90;0.70;;;;;;;;;;5036923;28;20048;-75
2020/12/07 05:37:26;;;;;;;0.30;0.30;;;;;;;;;;5040031;28;20522;-75
2020/12/07 05:39:53;;;;;;;0.90;0.47;;;;;;;;;;5038355;28;20497;-75
2020/12/07 05:42:20;;;;;;;1.50;0.50;;;;;;;;;;5042414;28;20052;-75
2020/12/07 05:44:52;;;;;;;4.70;0.57;;;;;;;;;;5036809;28;20119;-75
2020/12/07 05:47:21;;;;;;;2.35;0.50;;;;;;;;;;5032906;28;20049;-76
2020/12/07 05:49:49;;;;;;;1.58;0.63;;;;;;;;;;5038686;28;20041;-75
2020/12/07 05:52:17;;;;;;;2.10;0.65;;;;;;;;;;5038768;28;20052;-77
2020/12/07 05:54:44;;;;;;;0.88;0.60;;;;;;;;;;5037562;28;20047;-75
2020/12/07 05:57:14;;;;;;;1.23;0.40;;;;;;;;;;5036771;28;20454;-74
2020/12/07 05:59:41;;;;;;;1.45;0.60;;;;;;;;;;5040737;28;20053;-74
2020/12/07 06:02:08;;;;;;;1.10;0.50;;;;;;;;;;5037245;28;20053;-75
2020/12/07 06:04:35;;;;;;;3.35;0.80;;;;;;;;;;5039894;28;20486;-77
2020/12/07 06:07:02;;;;;;;1.65;0.47;;;;;;;;;;5038364;28;20041;-74
2020/12/07 06:09:29;;;;;;;2.42;0.50;;;;;;;;;;5037621;28;20486;-74
2020/12/07 06:12:09;;;;;;;1.52;0.40;;;;;;;;;;5036233;28;20061;-73
2020/12/07 06:14:37;;;;;;;2.00;0.50;;;;;;;;;;5037312;28;20049;-73
2020/12/07 06:17:05;;;;;;;0.65;0.50;;;;;;;;;;5039371;28;20048;-74
2020/12/07 06:19:32;;;;;;;1.88;0.75;;;;;;;;;;5034907;28;20470;-72
2020/12/07 06:22:00;;;;;;;0.98;0.60;;;;;;;;;;5038140;28;20037;-75
2020/12/07 06:24:39;;;;;;;1.00;0.38;;;;;;;;;;5042409;28;20056;-74
2020/12/07 06:27:07;;;;;;;1.27;0.68;;;;;;;;;;5040296;28;20490;-72
2020/12/07 06:29:34;;;;;;;1.02;0.65;;;;;;;;;;5036688;28;20060;-74
2020/12/07 06:32:00;;;;;;;1.90;1.10;;;;;;;;;;5037494;28;20411;-71
2020/12/07 06:34:39;;;;;;;2.55;0.68;;;;;;;;;;5044359;28;20037;-71
2020/12/07 06:37:06;;;;;;;1.48;0.88;;;;;;;;;;5038066;28;20048;-72
2020/12/07 06:39:40;;;;;;;1.00;0.35;;;;;;;;;;5032865;28;20061;-71
2020/12/07 06:42:08;;;;;;;2.80;0.77;;;;;;;;;;5033251;28;20049;-71
2020/12/07 06:44:34;;;;;;;1.58;0.50;;;;;;;;;;5032488;28;20045;-73
2020/12/07 06:47:09;;;;;;;2.75;0.50;;;;;;;;;;5032128;28;20046;-73
2020/12/07 06:49:58;;;;;;;2.63;0.50;;;;;;;;;;5038025;28;20414;-71
2020/12/07 06:52:26;;;;;;;1.48;0.80;;;;;;;;;;5036267;28;20041;-72
2020/12/07 06:57:30;;;;;;;3.35;0.55;;;;;;;;;;5036696;28;20045;-71
2020/12/07 06:59:58;;;;;;;1.23;0.30;;;;;;;;;;5038408;28;20048;-74
2020/12/07 07:02:24;;;;;;;0.88;0.50;;;;;;;;;;5038297;28;20049;-74
2020/12/07 07:04:51;;;;;;;5.05;0.68;;;;;;;;;;5032926;28;20514;-74
2020/12/07 07:07:19;;;;;;;2.65;0.63;;;;;;;;;;5039933;28;20045;-74
2020/12/07 07:09:45;;;;;;;1.33;0.50;;;;;;;;;;5038643;28;20057;-75
2020/12/07 07:12:11;;;;;;;0.93;0.55;;;;;;;;;;5039840;28;20052;-75
2020/12/07 07:14:38;;;;;;;2.75;0.70;;;;;;;;;;5035487;28;20045;-76
2020/12/07 07:17:04;;;;;;;0.65;0.40;;;;;;;;;;5033592;28;20056;-76
2020/12/07 07:19:30;;;;;;;2.10;0.57;;;;;;;;;;5030105;28;20057;-76
2020/12/07 07:21:57;;;;;;;2.63;0.50;;;;;;;;;;5033081;28;20546;-77
2020/12/07 07:24:25;;;;;;;1.55;0.50;;;;;;;;;;5039808;28;20050;-76
2020/12/07 07:26:52;;;;;;;4.28;0.65;;;;;;;;;;5036467;28;20175;-73
2020/12/07 07:29:19;;;;;;;2.80;0.93;;;;;;;;;;5034018;28;20049;-75
2020/12/07 07:31:45;;;;;;;1.67;0.88;;;;;;;;;;5039016;28;20060;-74
2020/12/07 07:34:11;;;;;;;2.42;1.38;;;;;;;;;;5032459;28;20060;-75
2020/12/07 07:36:37;;;;;;;2.95;1.15;;;;;;;;;;5036857;28;20049;-76
2020/12/07 07:39:03;;;;;;;3.42;1.77;;;;;;;;;;5035054;28;20057;-76
2020/12/07 07:41:31;;;;;;;5.78;1.75;;;;;;;;;;5040874;28;20044;-75
2020/12/07 07:43:57;;;;;;;5.32;1.73;;;;;;;;;;5034532;28;20502;-75
2020/12/07 07:46:24;;;;;;;5.35;1.20;;;;;;;;;;5036517;28;20053;-75
2020/12/07 07:54:45;;;;;;;4.30;1.30;;;;;;;;;;5038313;28;20048;-75
2020/12/07 08:00:16;;;;;;;3.00;1.30;;;;;;;;;;5034163;28;20053;-76
2020/12/07 08:16:27;;;;;;;3.13;1.30;;;;;;;;;;5036138;28;20486;-71
2020/12/07 08:18:59;;;;;;;5.05;1.60;;;;;;;;;;5030212;28;20056;-71
2020/12/07 08:21:27;;;;;;;1.88;0.98;;;;;;;;;;5036171;28;20056;-73
2020/12/07 08:23:54;;;;;;;2.22;0.95;;;;;;;;;;5032242;28;20068;-70
2020/12/07 08:26:21;;;;;;;4.53;1.50;;;;;;;;;;5035150;28;20461;-71
2020/12/07 08:28:52;;;;;;;4.30;1.10;;;;;;;;;;5031301;28;20075;-71
2020/12/07 08:31:20;;;;;;;3.47;1.63;;;;;;;;;;5034238;28;20075;-70
2020/12/07 08:34:14;;;;;;;2.15;1.38;;;;;;;;;;5040212;28;20140;-71
2020/12/07 08:36:44;;;;;;;4.57;1.98;;;;;;;;;;5036540;28;20391;-72
2020/12/07 08:39:10;;;;;;;;;;;;;;;;;;5039959;28;20635;-71
2020/12/07 08:41:36;;;;;;;3.88;1.55;;;;;;;;;;5035518;28;19927;-71
2020/12/07 08:44:09;;;;;;;5.25;2.25;;;;;;;;;;5033090;28;20045;-72
2020/12/07 08:46:36;;;;;;;3.35;1.38;;;;;;;;;;5035381;28;20549;-72
2020/12/07 08:49:03;;;;;;;5.57;1.45;;;;;;;;;;5035551;28;20465;-71
2020/12/07 08:51:32;;;;;;;4.75;1.30;;;;;;;;;;5054038;28;20064;-73
2020/12/07 08:53:58;;;;;;;4.68;1.50;;;;;;;;;;5033368;28;20038;-72
2020/12/07 08:56:24;;;;;;;3.42;1.50;;;;;;;;;;5036416;28;20045;-73
2020/12/07 08:58:51;;;;;;;5.63;2.20;;;;;;;;;;5041302;28;20498;-72
2020/12/07 09:01:17;;;;;;;4.10;1.15;;;;;;;;;;5038784;28;20045;-72
2020/12/07 09:03:45;;;;;;;3.47;1.30;;;;;;;;;;5038590;28;20055;-72
2020/12/07 09:06:13;;;;;;;4.85;1.48;;;;;;;;;;5042859;28;20084;-71
2020/12/07 09:08:40;;;;;;;6.32;1.58;;;;;;;;;;5038989;28;20067;-72
2020/12/07 09:11:07;;;;;;;5.35;1.65;;;;;;;;;;5041534;28;20057;-72
2020/12/07 09:13:34;;;;;;;5.40;1.60;;;;;;;;;;5038086;28;20059;-72
2020/12/07 09:16:01;;;;;;;3.40;1.75;;;;;;;;;;5036080;28;20132;-72
2020/12/07 09:18:27;;;;;;;5.53;1.50;;;;;;;;;;5038226;28;20136;-73
2020/12/07 09:20:54;;;;;;;4.00;1.50;;;;;;;;;;5041321;28;20052;-72
2020/12/07 09:23:20;;;;;;;5.80;1.95;;;;;;;;;;5041876;28;20059;-73
2020/12/07 09:25:50;;;;;;;4.47;1.45;;;;;;;;;;5037092;28;20140;-72
2020/12/07 09:28:16;;;;;;;4.72;1.50;;;;;;;;;;5032068;28;20575;-72
2020/12/07 09:30:43;;;;;;;5.45;1.40;;;;;;;;;;5045936;28;20498;-74
2020/12/07 09:33:11;;;;;;;2.55;0.93;;;;;;;;;;5035194;28;20049;-74
2020/12/07 09:35:38;;;;;;;8.15;2.13;;;;;;;;;;5041359;28;20103;-74
2020/12/07 09:38:04;;;;;;;5.90;1.85;;;;;;;;;;5034403;28;20071;-73
2020/12/07 09:40:30;;;;;;;5.65;1.83;;;;;;;;;;5044696;28;20092;-73
2020/12/07 09:42:56;;;;;;;2.78;1.15;;;;;;;;;;5036704;28;20049;-74
2020/12/07 09:45:22;;;;;;;1.88;1.30;;;;;;;;;;5041992;28;20060;-77
2020/12/07 09:47:49;;;;;;;2.95;1.23;;;;;;;;;;5039872;28;20928;-75
2020/12/07 09:50:15;;;;;;;7.32;1.98;;;;;;;;;;5038727;28;20056;-73
2020/12/07 09:52:41;;;;;;;5.30;1.63;;;;;;;;;;5037713;28;20517;-73
2020/12/07 09:55:07;;;;;;;5.70;1.55;;;;;;;;;;5037095;28;20057;-72
2020/12/07 09:57:33;;;;;;;4.93;2.00;;;;;;;;;;5037987;28;20474;-71
2020/12/07 10:00:00;;;;;;;5.30;2.00;;;;;;;;;;5037156;28;20136;-72
2020/12/07 10:02:26;;;;;;;6.63;2.30;;;;;;;;;;5037444;28;20067;-72
2020/12/07 10:04:52;;;;;;;3.17;1.77;;;;;;;;;;5035903;28;20059;-72
2020/12/07 10:07:19;;;;;;;3.97;1.88;;;;;;;;;;5037075;28;20478;-73
2020/12/07 10:09:45;;;;;;;4.53;1.42;;;;;;;;;;5032510;28;20499;-72
2020/12/07 10:12:11;;;;;;;3.75;1.70;;;;;;;;;;5034345;28;20526;-72
2020/12/07 10:14:38;;;;;;;4.72;2.10;;;;;;;;;;5039643;28;20712;-72
2020/12/07 10:17:04;;;;;;;3.58;1.27;;;;;;;;;;5042226;28;20494;-73
2020/12/07 10:19:31;;;;;;;6.68;2.00;;;;;;;;;;5034082;28;20045;-72
2020/12/07 10:21:57;;;;;;;5.05;1.80;;;;;;;;;;5034961;28;20048;-71
2020/12/07 10:24:23;;;;;;;5.13;2.03;;;;;;;;;;5031091;28;20575;-71
2020/12/07 10:26:50;;;;;;;5.47;1.75;;;;;;;;;;5039204;28;20037;-70
2020/12/07 10:29:16;;;;;;;3.85;1.33;;;;;;;;;;5036919;28;20134;-71
2020/12/07 10:31:43;;;;;;;3.20;1.60;;;;;;;;;;5035483;28;20510;-71
2020/12/07 10:34:09;;;;;;;6.05;2.05;;;;;;;;;;5032721;28;20053;-71
2020/12/07 10:36:37;;;;;;;4.32;1.40;;;;;;;;;;5039883;28;20123;-71
2020/12/07 10:39:06;;;;;;;5.32;1.60;;;;;;;;;;5033567;28;20053;-72
2020/12/07 10:41:32;;;;;;;4.15;1.73;;;;;;;;;;5037486;28;20041;-71
2020/12/07 10:43:58;;;;;;;3.90;1.80;;;;;;;;;;5036614;28;20414;-75
2020/12/07 10:46:24;;;;;;;4.63;1.80;;;;;;;;;;5034549;28;20073;-72
2020/12/07 10:48:51;;;;;;;6.57;2.58;;;;;;;;;;5039635;28;20044;-73
2020/12/07 10:51:18;;;;;;;6.13;1.95;;;;;;;;;;5037578;28;20411;-71
2020/12/07 10:53:44;;;;;;;3.97;1.63;;;;;;;;;;5034845;28;20474;-72
2020/12/07 10:56:11;;;;;;;8.57;2.03;;;;;;;;;;5037899;28;20051;-71
2020/12/07 10:58:40;;;;;;;7.22;2.38;;;;;;;;;;5036599;28;20498;-71
2020/12/07 11:01:06;;;;;;;4.88;1.70;;;;;;;;;;5037410;28;20056;-74
2020/12/07 11:03:33;;;;;;;10.63;1.77;;;;;;;;;;5036450;28;20055;-72
2020/12/07 11:06:00;;;;;;;6.28;1.20;;;;;;;;;;5039302;28;20051;-77
2020/12/07 11:08:33;;;;;;;7.32;1.92;;;;;;;;;;5041919;28;20050;-73
2020/12/07 11:11:00;;;;;;;3.13;1.27;;;;;;;;;;5041294;28;20051;-73
2020/12/07 11:13:31;;;;;;;5.10;1.85;;;;;;;;;;5036748;28;20649;-73
2020/12/07 11:16:01;;;;;;;3.58;1.48;;;;;;;;;;5038964;28;20053;-71
2020/12/07 11:18:29;;;;;;;5.85;2.38;;;;;;;;;;5038295;28;20053;-81
2020/12/07 11:21:13;;;;;;;5.95;1.92;;;;;;;;;;5032612;28;20056;-71
2020/12/07 11:23:41;;;;;;;7.18;2.65;;;;;;;;;;5039910;28;20474;-71
2020/12/07 11:26:08;;;;;;;8.90;3.15;;;;;;;;;;5040799;28;20044;-71
2020/12/07 11:28:38;;;;;;;7.88;2.15;;;;;;;;;;5036190;28;20125;-72
2020/12/07 11:31:05;;;;;;;8.43;2.97;;;;;;;;;;5039375;28;20136;-71
2020/12/07 11:33:31;;;;;;;6.53;1.77;;;;;;;;;;5039709;28;20084;-71
2020/12/07 11:36:11;;;;;;;10.05;2.25;;;;;;;;;;5043656;28;20045;-71
2020/12/07 11:39:00;;;;;;;8.15;2.15;;;;;;;;;;5032493;28;20060;-71
2020/12/07 11:44:10;;;;;;;2.33;1.40;;;;;;;;;;5037131;28;20506;-71
2020/12/07 11:46:58;;;;;;;4.90;1.73;;;;;;;;;;5043423;28;20095;-72
2020/12/07 11:49:25;;;;;;;4.05;1.55;;;;;;;;;;5030530;28;20063;-72
2020/12/07 11:51:51;;;;;;;3.55;1.48;;;;;;;;;;5038666;28;20052;-77
2020/12/07 11:54:18;;;;;;;4.25;1.45;;;;;;;;;;5037754;28;20422;-73
2020/12/07 11:56:44;;;;;;;5.30;1.77;;;;;;;;;;5039528;28;20483;-74
2020/12/07 11:59:10;;;;;;;7.05;2.05;;;;;;;;;;5034265;28;20053;-74
2020/12/07 12:01:37;;;;;;;5.28;1.80;;;;;;;;;;5038151;28;20775;-75
2020/12/07 12:04:04;;;;;;;10.00;2.42;;;;;;;;;;5035751;28;20140;-75
2020/12/07 12:06:31;;;;;;;5.43;2.13;;;;;;;;;;5040779;28;20044;-75
2020/12/07 12:09:02;;;;;;;5.10;1.70;;;;;;;;;;5038229;28;20077;-74
2020/12/07 12:11:32;;;;;;;5.43;1.67;;;;;;;;;;5035152;28;20471;-76
2020/12/07 12:13:58;;;;;;;;;;;;;;;;;;5034754;28;20049;-75
2020/12/07 12:16:27;;;;;;;4.72;1.75;;;;;;;;;;5039490;28;20386;-74
2020/12/07 12:19:01;;;;;;;5.18;1.80;;;;;;;;;;5034401;28;20045;-78
2020/12/07 12:21:30;;;;;;;4.45;1.35;;;;;;;;;;5041976;28;20056;-74
2020/12/07 12:24:05;;;;;;;7.85;2.03;;;;;;;;;;5036804;28;20061;-74
2020/12/07 12:26:32;;;;;;;5.13;1.48;;;;;;;;;;5036482;28;20052;-75
2020/12/07 12:28:59;;;;;;;8.07;1.75;;;;;;;;;;5040055;28;20049;-74
2020/12/07 12:31:25;;;;;;;6.38;1.67;;;;;;;;;;5040830;28;20041;-74
2020/12/07 12:33:53;;;;;;;3.92;1.40;;;;;;;;;;5040684;28;20061;-74
2020/12/07 12:36:21;;;;;;;7.88;1.98;;;;;;;;;;5042982;28;20041;-74
2020/12/07 12:38:47;;;;;;;3.97;1.52;;;;;;;;;;5037359;28;20137;-74
2020/12/07 12:41:14;;;;;;;4.32;1.55;;;;;;;;;;5039775;28;20096;-74
2020/12/07 12:43:41;;;;;;;2.78;1.58;;;;;;;;;;5039634;28;20525;-74
2020/12/07 12:46:13;;;;;;;6.95;2.20;;;;;;;;;;5039107;28;20057;-74
2020/12/07 12:48:39;;;;;;;3.78;1.30;;;;;;;;;;5038533;28;20053;-75
2020/12/07 12:51:06;;;;;;;3.78;1.20;;;;;;;;;;5044304;28;20049;-75
2020/12/07 12:53:33;;;;;;;3.67;1.30;;;;;;;;;;5041065;28;20053;-74
2020/12/07 12:55:59;;;;;;;2.53;1.10;;;;;;;;;;5031648;28;20041;-74
2020/12/07 12:58:25;;;;;;;4.05;1.10;;;;;;;;;;5039643;28;20049;-74
2020/12/07 13:00:52;;;;;;;4.55;1.10;;;;;;;;;;5034855;28;20556;-75
2020/12/07 13:03:18;;;;;;;2.78;1.42;;;;;;;;;;5038755;28;20045;-75
2020/12/07 13:05:44;;;;;;;2.55;1.60;;;;;;;;;;5040350;28;20067;-76
2020/12/07 13:08:11;;;;;;;2.22;0.90;;;;;;;;;;5040091;28;20049;-75
2020/12/07 13:10:40;;;;;;;2.40;0.73;;;;;;;;;;5042417;28;20139;-76
2020/12/07 13:13:06;;;;;;;2.90;1.00;;;;;;;;;;5037518;28;20053;-75
2020/12/07 13:15:34;;;;;;;5.18;1.45;;;;;;;;;;5036331;28;20430;-74
2020/12/07 13:18:05;;;;;;;4.65;1.17;;;;;;;;;;5036516;28;20128;-75
2020/12/07 13:20:35;;;;;;;2.53;1.17;;;;;;;;;;5033100;28;22722;-75
2020/12/07 13:23:06;;;;;;;2.78;1.02;;;;;;;;;;5037078;28;20098;-75
2020/12/07 13:25:42;;;;;;;3.25;1.27;;;;;;;;;;5039699;28;20053;-75
2020/12/07 13:28:11;;;;;;;4.88;1.20;;;;;;;;;;5041221;28;20418;-74
2020/12/07 13:30:40;;;;;;;2.00;1.15;;;;;;;;;;5034131;28;20115;-75
2020/12/07 13:33:09;;;;;;;2.13;1.15;;;;;;;;;;5035439;28;20057;-75
2020/12/07 13:35:35;;;;;;;2.50;0.93;;;;;;;;;;5038127;28;20046;-75
2020/12/07 13:38:01;;;;;;;2.80;0.93;;;;;;;;;;5055963;28;20499;-76
2020/12/07 13:40:28;;;;;;;3.58;1.20;;;;;;;;;;5033552;28;20053;-75
2020/12/07 13:42:54;;;;;;;1.98;1.05;;;;;;;;;;5032688;28;20041;-75
2020/12/07 13:45:20;;;;;;;2.97;0.95;;;;;;;;;;5037991;28;20052;-75
2020/12/07 13:47:47;;;;;;;3.40;1.40;;;;;;;;;;5037635;28;20040;-75
2020/12/07 13:50:16;;;;;;;;;;;;;;;;;;5041387;28;20073;-75
2020/12/07 13:52:48;;;;;;;2.67;1.00;;;;;;;;;;5038641;28;19991;-75
2020/12/07 13:55:14;;;;;;;1.60;0.82;;;;;;;;;;5038778;28;20056;-75
2020/12/07 13:57:41;;;;;;;2.28;1.52;;;;;;;;;;5035211;28;20053;-74
2020/12/07 14:00:07;;;;;;;2.33;1.20;;;;;;;;;;5041446;28;20053;-76
2020/12/07 14:02:39;;;;;;;4.45;2.05;;;;;;;;;;5038085;28;20045;-76
2020/12/07 14:05:06;;;;;;;2.88;0.90;;;;;;;;;;5041333;28;20056;-76
2020/12/07 14:07:32;;;;;;;2.42;1.08;;;;;;;;;;5039297;28;20069;-76
2020/12/07 14:10:05;;;;;;;2.63;1.00;;;;;;;;;;5038354;28;20053;-76
2020/12/07 14:12:34;;;;;;;2.60;1.00;;;;;;;;;;5036413;28;20127;-74
2020/12/07 14:15:02;;;;;;;3.40;0.85;;;;;;;;;;5038876;28;20411;-75
2020/12/07 14:17:33;;;;;;;2.38;0.85;;;;;;;;;;5038737;28;20079;-75
2020/12/07 14:20:16;;;;;;;2.47;1.25;;;;;;;;;;5036977;28;20056;-75
2020/12/07 14:23:05;;;;;;;1.75;1.02;;;;;;;;;;5043089;28;20392;-75
2020/12/07 14:40:05;;;;;;;2.63;1.33;;;;;;;;;;5008758;28;20053;-76
2020/12/07 14:42:01;;;;;;;3.38;0.90;;;;;;;;;;5029013;28;20053;-77
2020/12/07 14:44:31;;;;;;;4.82;1.60;;;;;;;;;;5032644;28;20049;-77
2020/12/07 14:46:59;;;;;;;2.15;1.00;;;;;;;;;;5041756;28;20838;-76
2020/12/07 14:49:25;;;;;;;3.25;1.80;;;;;;;;;;5036112;28;20058;-76
2020/12/07 14:51:56;;;;;;;1.98;1.00;;;;;;;;;;5035141;28;20041;-77
2020/12/07 14:54:28;;;;;;;2.92;1.30;;;;;;;;;;5035660;28;20058;-76
2020/12/07 15:13:49;;;;;;;2.72;1.35;;;;;;;;;;5038373;28;20055;-72
2020/12/07 15:15:34;;;;;;;4.38;1.08;;;;;;;;;;5038765;28;20045;-71
2020/12/07 15:18:03;;;;;;;7.97;2.35;;;;;;;;;;5038004;28;20049;-72
2020/12/07 15:20:29;;;;;;;3.13;1.50;;;;;;;;;;5036270;28;20044;-72
2020/12/07 15:22:55;;;;;;;5.07;1.27;;;;;;;;;;5037145;28;20037;-72
2020/12/07 15:25:21;;;;;;;2.63;1.23;;;;;;;;;;5039435;28;20053;-72
2020/12/07 15:27:47;;;;;;;3.58;1.45;;;;;;;;;;5037379;28;20321;-72
2020/12/07 15:30:13;;;;;;;4.68;1.33;;;;;;;;;;5038839;28;20044;-72
2020/12/07 15:32:40;;;;;;;1.65;0.95;;;;;;;;;;5040877;28;20057;-73
2020/12/07 15:35:06;;;;;;;1.95;0.90;;;;;;;;;;5032548;28;20048;-72
2020/12/07 15:37:33;;;;;;;3.25;1.20;;;;;;;;;;5038739;28;20494;-71
2020/12/07 15:40:06;;;;;;;2.45;1.48;;;;;;;;;;5036002;28;20144;-71
2020/12/07 15:42:33;;;;;;;3.33;1.40;;;;;;;;;;5034550;28;20055;-72
2020/12/07 15:44:59;;;;;;;2.22;1.10;;;;;;;;;;5036619;28;20183;-72